createdAt,value
2022-11-06T00:00:57.751Z,92.13
2022-11-06T00:03:26.804Z,88.24
2022-11-06T00:06:13.049Z,89.49
2022-11-06T00:08:42.416Z,90.77
2022-11-06T00:11:18.312Z,90.98
2022-11-06T00:13:48.074Z,89.49
2022-11-06T00:16:19.027Z,90.11
2022-11-06T00:18:47.897Z,92.60
2022-11-06T00:21:18.721Z,93.67
2022-11-06T00:23:47.915Z,91.10
2022-11-06T00:26:19.398Z,92.81
2022-11-06T00:28:50.006Z,93.92
2022-11-06T00:31:26.705Z,95.05
2022-11-06T00:33:58.854Z,95.76
2022-11-06T00:36:30.994Z,96.63
2022-11-06T00:39:00.032Z,97.09
2022-11-06T00:41:28.376Z,96.46
2022-11-06T00:44:01.280Z,96.49
2022-11-06T00:46:30.114Z,93.00
2022-11-06T00:48:58.563Z,97.63
2022-11-06T00:51:30.733Z,97.65
2022-11-06T00:54:03.948Z,97.23
2022-11-06T00:56:34.934Z,95.25
2022-11-06T00:59:06.186Z,96.09
2022-11-06T01:01:41.549Z,98.01
2022-11-06T01:04:13.267Z,96.93
2022-11-06T01:06:45.621Z,97.30
2022-11-06T01:09:19.024Z,97.07
2022-11-06T01:12:13.270Z,95.52
2022-11-06T01:14:44.548Z,87.75
2022-11-06T01:17:12.209Z,90.89
2022-11-06T01:19:41.258Z,95.01
2022-11-06T01:22:09.948Z,96.78
2022-11-06T01:24:38.830Z,88.36
2022-11-06T01:29:57.574Z,90.38
2022-11-06T01:32:26.317Z,89.98
2022-11-06T01:34:55.808Z,91.20
2022-11-06T01:37:25.625Z,95.97
2022-11-06T01:39:53.270Z,96.20
2022-11-06T01:42:22.996Z,91.96
2022-11-06T01:45:20.318Z,94.93
2022-11-06T01:47:50.098Z,99.69
2022-11-06T01:50:20.707Z,98.69
2022-11-06T01:52:49.311Z,100.00
2022-11-06T01:55:30.556Z,100.00
2022-11-06T01:58:03.887Z,100.00
2022-11-06T02:00:33.915Z,95.68
2022-11-06T02:03:05.443Z,96.56
2022-11-06T02:05:33.558Z,96.63
2022-11-06T02:08:05.084Z,97.68
2022-11-06T02:10:35.092Z,100.00
2022-11-06T02:13:33.555Z,99.07
2022-11-06T02:16:24.169Z,100.00
2022-11-06T02:19:19.938Z,100.00
2022-11-06T02:22:17.127Z,100.00
2022-11-06T02:25:12.906Z,100.00
2022-11-06T02:27:47.072Z,100.00
2022-11-06T02:30:17.748Z,100.00
2022-11-06T02:32:51.529Z,100.00
2022-11-06T02:35:23.951Z,100.00
2022-11-06T02:38:01.902Z,100.00
2022-11-06T02:40:35.582Z,100.00
2022-11-06T02:43:09.319Z,100.00
2022-11-06T02:45:49.004Z,100.00
2022-11-06T02:48:22.522Z,100.00
2022-11-06T02:50:52.267Z,100.00
2022-11-06T02:53:24.064Z,100.00
2022-11-06T02:56:01.950Z,100.00
2022-11-06T02:58:44.840Z,100.00
2022-11-06T03:01:39.431Z,100.00
2022-11-06T03:04:16.826Z,100.00
2022-11-06T03:06:53.113Z,100.00
2022-11-06T03:09:29.874Z,100.00
2022-11-06T03:12:26.608Z,98.86
2022-11-06T03:15:00.708Z,100.00
2022-11-06T03:17:39.511Z,100.00
2022-11-06T03:20:17.998Z,100.00
2022-11-06T03:22:55.885Z,100.00
2022-11-06T03:25:54.677Z,100.00
2022-11-06T03:28:41.918Z,100.00
2022-11-06T03:31:16.014Z,100.00
2022-11-06T03:33:55.350Z,100.00
2022-11-06T03:36:48.702Z,100.00
2022-11-06T03:39:25.235Z,100.00
2022-11-06T03:42:11.560Z,100.00
2022-11-06T03:44:44.871Z,100.00
2022-11-06T03:47:25.910Z,100.00
2022-11-06T03:50:06.106Z,100.00
2022-11-06T03:53:04.888Z,100.00
2022-11-06T03:55:38.161Z,98.71
2022-11-06T03:58:11.647Z,100.00
2022-11-06T04:00:43.784Z,100.00
2022-11-06T04:03:39.476Z,100.00
2022-11-06T04:06:25.077Z,100.00
2022-11-06T04:09:17.034Z,100.00
2022-11-06T04:12:04.325Z,100.00
2022-11-06T04:14:39.413Z,100.00
2022-11-06T04:17:14.015Z,100.00
2022-11-06T04:19:47.791Z,100.00
2022-11-06T04:22:29.015Z,100.00
2022-11-06T04:25:40.975Z,100.00
2022-11-06T04:28:32.666Z,100.00
2022-11-06T04:31:14.075Z,100.00
2022-11-06T04:34:06.717Z,100.00
2022-11-06T04:37:12.556Z,100.00
2022-11-06T04:39:50.637Z,100.00
2022-11-06T04:42:27.042Z,98.09
2022-11-06T04:44:58.949Z,98.19
2022-11-06T04:47:29.277Z,100.00
2022-11-06T04:49:59.941Z,99.09
2022-11-06T04:52:29.658Z,99.49
2022-11-06T04:54:59.844Z,100.00
2022-11-06T04:57:27.816Z,100.00
2022-11-06T04:59:57.876Z,100.00
2022-11-06T05:02:26.555Z,99.79
2022-11-06T05:04:56.116Z,97.96
2022-11-06T05:07:23.510Z,100.00
2022-11-06T05:09:53.038Z,100.00
2022-11-06T05:12:21.363Z,100.00
2022-11-06T05:14:50.034Z,100.00
2022-11-06T05:17:18.654Z,100.00
2022-11-06T05:19:48.487Z,100.00
2022-11-06T05:22:35.770Z,100.00
2022-11-06T05:25:03.763Z,100.00
2022-11-06T05:27:32.272Z,98.32
2022-11-06T05:30:00.683Z,100.00
2022-11-06T05:32:31.198Z,100.00
2022-11-06T05:34:59.166Z,98.99
2022-11-06T05:37:29.057Z,99.75
2022-11-06T05:39:58.784Z,100.00
2022-11-06T05:42:27.794Z,97.58
2022-11-06T05:44:56.566Z,97.01
2022-11-06T05:47:25.983Z,96.75
2022-11-06T05:49:55.168Z,96.89
2022-11-06T05:52:23.196Z,93.40
2022-11-06T05:54:52.264Z,100.00
2022-11-06T05:57:20.442Z,94.08
2022-11-06T05:59:47.929Z,88.64
2022-11-06T06:02:18.176Z,88.25
2022-11-06T06:04:47.679Z,87.87
2022-11-06T06:07:17.705Z,89.39
2022-11-06T06:09:47.579Z,88.63
2022-11-06T06:12:16.190Z,96.91
2022-11-06T06:14:50.281Z,96.23
2022-11-06T06:17:20.986Z,96.74
2022-11-06T06:19:51.415Z,97.62
2022-11-06T06:22:21.397Z,95.50
2022-11-06T06:24:49.759Z,100.00
2022-11-06T06:27:18.076Z,100.00
2022-11-06T06:29:48.568Z,100.00
2022-11-06T06:32:18.216Z,99.81
2022-11-06T06:34:48.141Z,100.00
2022-11-06T06:37:20.217Z,93.78
2022-11-06T06:39:49.181Z,97.15
2022-11-06T06:42:19.030Z,99.39
2022-11-06T06:44:49.126Z,100.00
2022-11-06T06:47:18.260Z,96.00
2022-11-06T06:49:47.860Z,94.01
2022-11-06T06:52:18.012Z,93.09
2022-11-06T06:54:46.672Z,95.54
2022-11-06T06:57:16.014Z,91.67
2022-11-06T06:59:44.642Z,88.31
2022-11-06T07:02:14.904Z,89.47
2022-11-06T07:04:44.176Z,89.19
2022-11-06T07:07:13.382Z,90.31
2022-11-06T07:09:42.678Z,90.76
2022-11-06T07:12:10.154Z,93.23
2022-11-06T07:14:40.354Z,90.35
2022-11-06T07:17:09.166Z,89.32
2022-11-06T07:19:38.873Z,96.60
2022-11-06T07:22:09.258Z,97.44
2022-11-06T07:24:40.123Z,92.89
2022-11-06T07:27:09.354Z,91.50
2022-11-06T07:29:38.538Z,89.37
2022-11-06T07:32:10.444Z,89.89
2022-11-06T07:34:39.645Z,92.08
2022-11-06T07:37:09.840Z,91.78
2022-11-06T07:39:38.294Z,90.02
2022-11-06T07:42:07.519Z,96.86
2022-11-06T07:44:37.441Z,92.49
2022-11-06T07:47:07.460Z,94.50
2022-11-06T07:49:36.259Z,98.12
2022-11-06T07:52:08.709Z,94.04
2022-11-06T07:54:38.014Z,93.59
2022-11-06T07:57:06.193Z,90.39
2022-11-06T07:59:34.496Z,91.13
2022-11-06T08:02:04.848Z,90.77
2022-11-06T08:04:35.246Z,92.80
2022-11-06T08:07:03.821Z,92.00
2022-11-06T08:09:33.651Z,96.93
2022-11-06T08:12:02.607Z,94.17
2022-11-06T08:14:32.095Z,93.10
2022-11-06T08:17:00.315Z,89.85
2022-11-06T08:19:29.434Z,91.47
2022-11-06T08:21:58.298Z,95.00
2022-11-06T08:24:28.648Z,91.46
2022-11-06T08:27:00.381Z,91.50
2022-11-06T08:29:29.382Z,91.05
2022-11-06T08:32:00.194Z,93.69
2022-11-06T08:34:29.080Z,93.64
2022-11-06T08:36:58.639Z,95.23
2022-11-06T08:39:28.072Z,92.57
2022-11-06T08:41:57.764Z,89.32
2022-11-06T08:44:28.394Z,95.70
2022-11-06T08:47:01.262Z,97.21
2022-11-06T08:49:32.017Z,90.12
2022-11-06T08:52:00.686Z,88.06
2022-11-06T08:54:30.110Z,87.66
2022-11-06T08:57:01.018Z,90.23
2022-11-06T08:59:28.747Z,90.17
2022-11-06T09:01:58.849Z,88.32
2022-11-06T09:04:29.011Z,88.73
2022-11-06T09:06:59.548Z,88.71
2022-11-06T09:09:35.150Z,94.29
2022-11-06T09:12:05.007Z,97.80
2022-11-06T09:14:36.727Z,98.00
2022-11-06T09:17:06.361Z,93.69
2022-11-06T09:19:34.184Z,95.38
2022-11-06T09:22:04.148Z,98.38
2022-11-06T09:24:57.686Z,98.17
2022-11-06T09:27:22.993Z,98.77
2022-11-06T09:29:53.992Z,99.10
2022-11-06T09:32:25.208Z,100.00
2022-11-06T09:34:54.163Z,97.54
2022-11-06T09:37:23.931Z,96.26
2022-11-06T09:39:52.376Z,99.97
2022-11-06T09:43:04.191Z,95.29
2022-11-06T09:45:53.820Z,91.29
2022-11-06T09:48:32.282Z,96.65
2022-11-06T09:51:07.013Z,90.12
2022-11-06T09:53:43.172Z,88.07
2022-11-06T09:56:14.416Z,87.66
2022-11-06T09:58:48.624Z,91.93
2022-11-06T10:01:27.122Z,95.15
2022-11-06T10:04:01.748Z,94.24
2022-11-06T10:06:30.540Z,95.59
2022-11-06T10:09:05.704Z,96.72
2022-11-06T10:12:07.031Z,96.31
2022-11-06T10:15:10.673Z,90.56
2022-11-06T10:17:52.536Z,87.91
2022-11-06T10:20:27.504Z,89.26
2022-11-06T10:22:58.569Z,84.70
2022-11-06T10:25:51.490Z,83.09
2022-11-06T10:28:34.043Z,90.35
2022-11-06T10:31:13.771Z,91.00
2022-11-06T10:34:07.203Z,88.49
2022-11-06T10:36:40.247Z,85.58
2022-11-06T10:39:17.090Z,88.17
2022-11-06T10:41:51.979Z,85.23
2022-11-06T10:44:36.274Z,85.76
2022-11-06T10:47:29.344Z,86.88
2022-11-06T10:50:03.105Z,90.83
2022-11-06T10:52:59.932Z,91.62
2022-11-06T10:55:53.997Z,92.38
2022-11-06T10:58:31.583Z,92.40
2022-11-06T11:01:04.590Z,90.97
2022-11-06T11:03:43.814Z,91.09
2022-11-06T11:06:12.981Z,92.78
2022-11-06T11:08:44.701Z,94.54
2022-11-06T11:11:16.647Z,94.52
2022-11-06T11:13:49.593Z,92.46
2022-11-06T11:16:25.574Z,93.90
2022-11-06T11:18:54.972Z,88.04
2022-11-06T11:21:27.999Z,82.68
2022-11-06T11:24:09.366Z,81.85
2022-11-06T11:26:50.227Z,80.96
2022-11-06T11:29:29.620Z,77.40
2022-11-06T11:32:04.006Z,77.89
2022-11-06T11:34:50.294Z,78.46
2022-11-06T11:37:32.368Z,85.82
2022-11-06T11:40:30.389Z,85.19
2022-11-06T11:43:27.493Z,87.62
2022-11-06T11:46:07.471Z,87.60
2022-11-06T11:48:46.298Z,89.48
2022-11-06T11:51:27.460Z,92.02
2022-11-06T11:53:59.061Z,93.72
2022-11-06T11:56:58.265Z,92.62
2022-11-06T11:59:46.644Z,86.31
2022-11-06T12:02:36.430Z,87.86
2022-11-06T12:05:13.758Z,90.52
2022-11-06T12:07:46.661Z,86.50
2022-11-06T12:10:39.411Z,89.93
2022-11-06T12:13:22.890Z,87.30
2022-11-06T12:16:01.978Z,91.58
2022-11-06T12:18:37.570Z,86.16
2022-11-06T12:21:24.183Z,80.55
2022-11-06T12:24:12.940Z,79.12
2022-11-06T12:27:04.374Z,78.50
2022-11-06T12:29:52.630Z,79.52
2022-11-06T12:32:38.695Z,83.56
2022-11-06T12:35:25.583Z,89.50
2022-11-06T12:38:27.361Z,87.88
2022-11-06T12:41:03.343Z,88.70
2022-11-06T12:43:47.816Z,91.30
2022-11-06T12:46:55.294Z,92.09
2022-11-06T12:49:40.560Z,94.25
2022-11-06T12:52:29.941Z,89.54
2022-11-06T12:55:28.457Z,90.00
2022-11-06T12:58:47.909Z,90.89
2022-11-06T13:01:21.962Z,91.35
2022-11-06T13:04:12.712Z,90.35
2022-11-06T13:07:23.998Z,91.30
2022-11-06T13:09:54.956Z,92.82
2022-11-06T13:12:42.125Z,92.23
2022-11-06T13:15:36.735Z,90.76
2022-11-06T13:18:22.096Z,91.73
2022-11-06T13:20:53.058Z,92.15
2022-11-06T13:23:36.210Z,89.72
2022-11-06T13:26:38.902Z,88.21
2022-11-06T13:29:13.198Z,84.45
2022-11-06T13:31:55.858Z,84.54
2022-11-06T13:34:38.085Z,83.33
2022-11-06T13:37:19.005Z,82.29
2022-11-06T13:40:00.086Z,84.45
2022-11-06T13:42:34.445Z,85.58
2022-11-06T13:45:09.440Z,85.40
2022-11-06T13:47:53.351Z,86.70
2022-11-06T13:50:37.771Z,90.70
2022-11-06T13:53:20.335Z,90.94
2022-11-06T13:56:20.054Z,86.61
2022-11-06T13:58:57.587Z,83.98
2022-11-06T14:01:49.227Z,86.35
2022-11-06T14:04:31.355Z,84.42
2022-11-06T14:07:00.739Z,79.74
2022-11-06T14:09:34.022Z,77.73
2022-11-06T14:12:14.822Z,83.77
2022-11-06T14:14:46.124Z,82.74
2022-11-06T14:17:17.677Z,87.69
2022-11-06T14:19:51.611Z,82.62
2022-11-06T14:22:37.074Z,80.84
2022-11-06T14:25:29.111Z,79.03
2022-11-06T14:27:58.175Z,82.73
2022-11-06T14:30:57.505Z,86.73
2022-11-06T14:33:39.329Z,85.38
2022-11-06T14:36:35.115Z,84.03
2022-11-06T14:39:04.727Z,89.75
2022-11-06T14:41:33.801Z,89.97
2022-11-06T14:44:09.150Z,88.40
2022-11-06T14:46:39.786Z,89.16
2022-11-06T14:49:33.389Z,89.63
2022-11-06T14:52:13.778Z,89.44
2022-11-06T14:55:06.327Z,91.41
2022-11-06T14:57:47.759Z,90.44
2022-11-06T15:00:46.399Z,92.38
2022-11-06T15:03:23.957Z,91.69
2022-11-06T15:06:16.923Z,93.09
2022-11-06T15:08:46.900Z,94.15
2022-11-06T15:11:35.536Z,89.46
2022-11-06T15:14:09.068Z,89.65
2022-11-06T15:17:25.027Z,88.15
2022-11-06T15:20:16.760Z,90.18
2022-11-06T15:22:56.463Z,89.03
2022-11-06T15:25:29.793Z,89.28
2022-11-06T15:28:08.647Z,91.01
2022-11-06T15:30:46.940Z,91.36
2022-11-06T15:33:28.833Z,90.45
2022-11-06T15:36:08.413Z,89.86
2022-11-06T15:38:39.694Z,90.56
2022-11-06T15:41:23.267Z,90.10
2022-11-06T15:43:55.960Z,88.38
2022-11-06T15:46:29.263Z,88.43
2022-11-06T15:49:18.487Z,88.59
2022-11-06T15:52:02.508Z,87.31
2022-11-06T15:54:43.870Z,86.27
2022-11-06T15:57:18.705Z,86.78
2022-11-06T15:59:51.420Z,85.63
2022-11-06T16:02:23.678Z,87.19
2022-11-06T16:04:56.494Z,86.35
2022-11-06T16:07:26.989Z,85.71
2022-11-06T16:09:57.064Z,84.45
2022-11-06T16:12:26.513Z,87.12
2022-11-06T16:14:57.900Z,87.10
2022-11-06T16:17:28.805Z,87.19
2022-11-06T16:20:03.412Z,87.04
2022-11-06T16:22:37.440Z,85.50
2022-11-06T16:25:18.072Z,86.30
2022-11-06T16:27:48.699Z,88.05
2022-11-06T16:30:25.400Z,87.97
2022-11-06T16:32:58.828Z,87.69
2022-11-06T16:35:38.342Z,89.57
2022-11-06T16:38:39.786Z,90.19
2022-11-06T16:41:09.665Z,90.87
2022-11-06T16:43:40.789Z,89.14
2022-11-06T16:46:12.772Z,86.16
2022-11-06T16:48:47.807Z,89.67
2022-11-06T16:51:44.848Z,89.83
2022-11-06T16:54:20.570Z,81.66
2022-11-06T16:56:49.818Z,81.45
2022-11-06T16:59:25.125Z,84.42
2022-11-06T17:01:55.371Z,94.95
2022-11-06T17:04:31.021Z,93.42
2022-11-06T17:07:01.799Z,91.22
2022-11-06T17:09:39.426Z,94.68
2022-11-06T17:12:12.090Z,95.65
2022-11-06T17:14:44.703Z,94.54
2022-11-06T17:17:28.471Z,94.77
2022-11-06T17:19:57.768Z,96.49
2022-11-06T17:22:26.881Z,89.99
2022-11-06T17:24:56.688Z,86.14
2022-11-06T17:27:27.140Z,87.74
2022-11-06T17:29:56.199Z,88.00
2022-11-06T17:32:26.298Z,93.15
2022-11-06T17:34:57.787Z,93.42
2022-11-06T17:37:28.083Z,92.81
2022-11-06T17:40:00.631Z,93.09
2022-11-06T17:42:30.627Z,93.23
2022-11-06T17:45:00.686Z,96.02
2022-11-06T17:47:31.214Z,95.06
2022-11-06T17:50:02.857Z,93.11
2022-11-06T17:52:34.052Z,92.37
2022-11-06T17:55:06.060Z,92.05
2022-11-06T17:58:07.397Z,93.35
2022-11-06T18:00:54.196Z,94.04
2022-11-06T18:03:25.730Z,93.62
2022-11-06T18:05:57.421Z,92.16
2022-11-06T18:08:28.192Z,91.22
2022-11-06T18:11:01.795Z,87.72
2022-11-06T18:13:35.135Z,83.43
2022-11-06T18:16:09.842Z,79.80
2022-11-06T18:18:44.881Z,79.34
2022-11-06T18:21:16.980Z,90.13
2022-11-06T18:23:47.862Z,91.00
2022-11-06T18:26:23.661Z,92.45
2022-11-06T18:28:58.827Z,92.22
2022-11-06T18:31:30.265Z,91.31
2022-11-06T18:34:07.229Z,83.97
2022-11-06T18:36:39.090Z,83.26
2022-11-06T18:39:11.260Z,89.97
2022-11-06T18:41:42.086Z,89.32
2022-11-06T18:44:12.156Z,89.23
2022-11-06T18:46:42.481Z,89.81
2022-11-06T18:49:13.977Z,89.86
2022-11-06T18:51:44.034Z,92.53
2022-11-06T18:54:18.155Z,93.14
2022-11-06T18:56:48.652Z,92.55
2022-11-06T18:59:22.379Z,93.99
2022-11-06T19:01:51.929Z,93.62
2022-11-06T19:04:24.158Z,94.86
2022-11-06T19:06:52.077Z,96.29
2022-11-06T19:09:24.566Z,97.56
2022-11-06T19:11:56.726Z,95.40
2022-11-06T19:14:27.000Z,94.50
2022-11-06T19:16:57.631Z,94.27
2022-11-06T19:19:28.167Z,95.84
2022-11-06T19:22:00.946Z,95.49
2022-11-06T19:24:30.936Z,95.73
2022-11-06T19:27:02.939Z,97.61
2022-11-06T19:29:42.015Z,99.23
2022-11-06T19:32:14.150Z,100.00
2022-11-06T19:34:45.471Z,100.00
2022-11-06T19:37:24.924Z,100.00
2022-11-06T19:40:52.746Z,100.00
2022-11-06T19:44:04.071Z,100.00
2022-11-06T19:46:36.553Z,96.98
2022-11-06T19:49:10.030Z,93.45
2022-11-06T19:51:42.828Z,93.07
2022-11-06T19:54:12.490Z,94.44
2022-11-06T19:57:29.313Z,88.33
2022-11-06T19:59:35.155Z,84.14
2022-11-06T20:02:06.128Z,79.99
2022-11-06T20:04:37.356Z,78.76
2022-11-06T20:07:11.642Z,79.24
2022-11-06T20:09:42.401Z,80.39
2022-11-06T20:12:17.504Z,83.45
2022-11-06T20:14:50.965Z,84.32
2022-11-06T20:17:21.013Z,82.60
2022-11-06T20:19:52.016Z,79.51
2022-11-06T20:22:24.535Z,80.26
2022-11-06T20:24:56.433Z,88.38
2022-11-06T20:27:26.688Z,90.21
2022-11-06T20:29:57.129Z,90.42
2022-11-06T20:32:26.659Z,92.79
2022-11-06T20:34:57.669Z,94.10
2022-11-06T20:37:29.115Z,92.68
2022-11-06T20:40:00.202Z,92.59
2022-11-06T20:42:33.172Z,92.94
2022-11-06T20:45:07.233Z,93.78
2022-11-06T20:47:37.171Z,93.79
2022-11-06T20:50:08.021Z,92.65
2022-11-06T20:52:37.060Z,93.66
2022-11-06T20:55:07.599Z,94.32
2022-11-06T20:57:37.097Z,96.16
2022-11-06T21:00:10.377Z,97.42
2022-11-06T21:02:43.208Z,96.91
2022-11-06T21:05:12.611Z,94.81
2022-11-06T21:07:44.104Z,93.89
2022-11-06T21:10:13.880Z,92.26
2022-11-06T21:12:43.223Z,89.40
2022-11-06T21:15:12.742Z,87.14
2022-11-06T21:18:23.248Z,85.80
2022-11-06T21:21:08.373Z,83.71
2022-11-06T21:23:38.352Z,77.77
2022-11-06T21:26:14.947Z,80.72
2022-11-06T21:28:43.894Z,81.33
2022-11-06T21:31:14.874Z,81.13
2022-11-06T21:33:45.860Z,80.19
2022-11-06T21:36:19.718Z,78.83
2022-11-06T21:38:49.011Z,80.20
2022-11-06T21:41:20.742Z,84.30
2022-11-06T21:43:49.229Z,88.05
2022-11-06T21:46:21.076Z,89.19
2022-11-06T21:48:52.266Z,90.77
2022-11-06T21:51:25.437Z,93.07
2022-11-06T21:54:14.599Z,93.15
2022-11-06T21:56:43.864Z,95.81
2022-11-06T21:59:13.787Z,95.38
2022-11-06T22:01:42.991Z,95.54
2022-11-06T22:04:14.030Z,94.80
2022-11-06T22:06:43.389Z,95.25
2022-11-06T22:09:14.836Z,95.64
2022-11-06T22:11:45.034Z,92.95
2022-11-06T22:14:15.752Z,92.17
2022-11-06T22:16:46.955Z,90.99
2022-11-06T22:19:18.514Z,89.15
2022-11-06T22:21:46.361Z,87.51
2022-11-06T22:24:16.516Z,86.79
2022-11-06T22:26:44.763Z,84.05
2022-11-06T22:29:14.712Z,84.02
2022-11-06T22:31:42.689Z,83.15
2022-11-06T22:34:12.172Z,83.50
2022-11-06T22:36:42.719Z,84.17
2022-11-06T22:39:13.506Z,85.29
2022-11-06T22:41:42.976Z,85.23
2022-11-06T22:44:11.309Z,85.42
2022-11-06T22:46:40.499Z,88.06
2022-11-06T22:49:12.867Z,88.69
2022-11-06T22:51:44.552Z,89.26
2022-11-06T22:54:14.489Z,89.84
2022-11-06T22:56:42.689Z,88.99
2022-11-06T22:59:12.323Z,81.55
2022-11-06T23:01:42.993Z,78.73
2022-11-06T23:04:18.014Z,78.61
2022-11-06T23:06:47.944Z,81.51
2022-11-06T23:09:16.821Z,85.42
2022-11-06T23:11:48.232Z,86.73
2022-11-06T23:14:17.295Z,88.21
2022-11-06T23:16:58.043Z,89.10
2022-11-06T23:19:29.236Z,91.01
2022-11-06T23:22:25.848Z,91.60
2022-11-06T23:24:56.972Z,91.67
2022-11-06T23:27:26.546Z,91.68
2022-11-06T23:30:00.654Z,91.37
2022-11-06T23:32:33.274Z,90.32
2022-11-06T23:35:04.578Z,89.81
2022-11-06T23:37:33.479Z,88.32
2022-11-06T23:40:04.763Z,88.06
2022-11-06T23:42:33.719Z,87.71
2022-11-06T23:45:23.178Z,86.71
2022-11-06T23:47:53.715Z,87.69
2022-11-06T23:50:23.860Z,88.09
2022-11-06T23:52:53.204Z,89.84
2022-11-06T23:55:22.453Z,90.88
2022-11-06T23:57:50.684Z,90.83
